sensor_id;sensor_type;location;lat;lon;timestamp;pressure;altitude;pressure_sealevel;temperature;humidity
42111;BME280;27766;52.174;5.456;2024-02-21T00:00:00;102026.50;;;10.09;100.00
42111;BME280;27766;52.174;5.456;2024-02-21T00:02:27;102040.47;;;10.14;100.00
42111;BME280;27766;52.174;5.456;2024-02-21T00:04:54;102029.84;;;10.29;100.00
42111;BME280;27766;52.174;5.456;2024-02-21T00:07:22;102015.38;;;10.11;100.00
42111;BME280;27766;52.174;5.456;2024-02-21T00:09:50;102012.34;;;10.22;100.00
42111;BME280;27766;52.174;5.456;2024-02-21T00:12:17;101999.72;;;10.08;100.00
42111;BME280;27766;52.174;5.456;2024-02-21T00:14:45;101998.09;;;10.10;100.00
42111;BME280;27766;52.174;5.456;2024-02-21T00:17:12;101996.09;;;10.03;100.00
42111;BME280;27766;52.174;5.456;2024-02-21T00:19:39;101998.25;;;9.92;100.00
42111;BME280;27766;52.174;5.456;2024-02-21T00:22:07;101994.03;;;9.94;100.00
42111;BME280;27766;52.174;5.456;2024-02-21T00:24:35;101993.44;;;10.02;100.00
42111;BME280;27766;52.174;5.456;2024-02-21T00:27:02;101986.88;;;10.10;100.00
42111;BME280;27766;52.174;5.456;2024-02-21T00:29:29;102001.63;;;9.90;100.00
42111;BME280;27766;52.174;5.456;2024-02-21T00:31:56;101999.41;;;9.99;100.00
42111;BME280;27766;52.174;5.456;2024-02-21T00:34:24;102002.47;;;9.90;100.00
42111;BME280;27766;52.174;5.456;2024-02-21T00:36:51;101998.13;;;9.89;100.00
42111;BME280;27766;52.174;5.456;2024-02-21T00:39:18;101997.78;;;9.80;100.00
42111;BME280;27766;52.174;5.456;2024-02-21T00:41:45;101997.63;;;9.98;100.00
42111;BME280;27766;52.174;5.456;2024-02-21T00:44:13;101993.81;;;9.88;100.00
42111;BME280;27766;52.174;5.456;2024-02-21T00:46:41;101993.66;;;9.85;100.00
42111;BME280;27766;52.174;5.456;2024-02-21T00:49:08;101995.38;;;9.85;100.00
42111;BME280;27766;52.174;5.456;2024-02-21T00:51:35;101999.03;;;9.90;100.00
42111;BME280;27766;52.174;5.456;2024-02-21T00:54:02;102009.38;;;9.90;100.00
42111;BME280;27766;52.174;5.456;2024-02-21T00:56:30;102004.97;;;9.87;100.00
42111;BME280;27766;52.174;5.456;2024-02-21T00:58:57;102005.41;;;9.77;100.00
42111;BME280;27766;52.174;5.456;2024-02-21T01:01:25;102000.19;;;9.75;100.00
42111;BME280;27766;52.174;5.456;2024-02-21T01:03:52;101995.84;;;9.74;100.00
42111;BME280;27766;52.174;5.456;2024-02-21T01:06:21;102002.06;;;9.79;100.00
42111;BME280;27766;52.174;5.456;2024-02-21T01:08:48;102006.38;;;9.79;100.00
42111;BME280;27766;52.174;5.456;2024-02-21T01:11:16;101999.59;;;9.82;100.00
42111;BME280;27766;52.174;5.456;2024-02-21T01:13:44;102002.06;;;9.79;100.00
42111;BME280;27766;52.174;5.456;2024-02-21T01:16:11;101991.84;;;9.82;100.00
42111;BME280;27766;52.174;5.456;2024-02-21T01:18:39;101971.41;;;9.89;100.00
42111;BME280;27766;52.174;5.456;2024-02-21T01:21:07;101977.53;;;9.91;100.00
42111;BME280;27766;52.174;5.456;2024-02-21T01:23:35;101987.69;;;9.86;100.00
42111;BME280;27766;52.174;5.456;2024-02-21T01:26:03;101989.31;;;9.84;100.00
42111;BME280;27766;52.174;5.456;2024-02-21T01:28:31;101982.28;;;9.80;100.00
42111;BME280;27766;52.174;5.456;2024-02-21T01:30:58;101987.53;;;9.83;100.00
42111;BME280;27766;52.174;5.456;2024-02-21T01:33:25;101976.25;;;9.81;100.00
42111;BME280;27766;52.174;5.456;2024-02-21T01:35:52;101979.75;;;9.81;100.00
42111;BME280;27766;52.174;5.456;2024-02-21T01:38:20;101973.03;;;9.87;100.00
42111;BME280;27766;52.174;5.456;2024-02-21T01:40:48;101957.16;;;9.77;100.00
42111;BME280;27766;52.174;5.456;2024-02-21T01:43:19;101958.47;;;9.89;100.00
42111;BME280;27766;52.174;5.456;2024-02-21T01:45:50;101946.81;;;9.77;100.00
42111;BME280;27766;52.174;5.456;2024-02-21T01:48:18;101945.13;;;9.78;100.00
42111;BME280;27766;52.174;5.456;2024-02-21T01:50:46;101937.78;;;9.89;100.00
42111;BME280;27766;52.174;5.456;2024-02-21T01:53:15;101927.25;;;9.84;100.00
42111;BME280;27766;52.174;5.456;2024-02-21T01:55:45;101933.06;;;10.01;100.00
42111;BME280;27766;52.174;5.456;2024-02-21T01:58:16;101935.91;;;10.07;100.00
42111;BME280;27766;52.174;5.456;2024-02-21T02:00:45;101932.31;;;10.04;100.00
42111;BME280;27766;52.174;5.456;2024-02-21T02:03:13;101932.97;;;9.98;100.00
42111;BME280;27766;52.174;5.456;2024-02-21T02:05:48;101926.91;;;9.97;100.00
42111;BME280;27766;52.174;5.456;2024-02-21T02:08:17;101928.84;;;10.03;100.00
42111;BME280;27766;52.174;5.456;2024-02-21T02:10:45;101918.81;;;9.88;100.00
42111;BME280;27766;52.174;5.456;2024-02-21T02:13:15;101912.50;;;9.81;100.00
42111;BME280;27766;52.174;5.456;2024-02-21T02:15:48;101918.91;;;9.91;100.00
42111;BME280;27766;52.174;5.456;2024-02-21T02:18:16;101907.69;;;9.91;100.00
42111;BME280;27766;52.174;5.456;2024-02-21T02:20:44;101907.91;;;9.97;100.00
42111;BME280;27766;52.174;5.456;2024-02-21T02:25:46;101901.75;;;9.93;100.00
42111;BME280;27766;52.174;5.456;2024-02-21T02:28:16;101909.38;;;9.90;100.00
42111;BME280;27766;52.174;5.456;2024-02-21T02:30:43;101907.91;;;9.97;100.00
42111;BME280;27766;52.174;5.456;2024-02-21T02:33:10;101907.19;;;10.01;100.00
42111;BME280;27766;52.174;5.456;2024-02-21T02:35:38;101907.69;;;9.91;100.00
42111;BME280;27766;52.174;5.456;2024-02-21T02:38:05;101898.44;;;9.97;100.00
42111;BME280;27766;52.174;5.456;2024-02-21T02:40:33;101891.41;;;9.93;100.00
42111;BME280;27766;52.174;5.456;2024-02-21T02:43:01;101887.88;;;9.91;100.00
42111;BME280;27766;52.174;5.456;2024-02-21T02:45:28;101901.13;;;9.99;100.00
42111;BME280;27766;52.174;5.456;2024-02-21T02:47:56;101895.81;;;9.96;100.00
42111;BME280;27766;52.174;5.456;2024-02-21T02:50:25;101893.06;;;9.91;100.00
42111;BME280;27766;52.174;5.456;2024-02-21T02:52:53;101879.94;;;9.87;100.00
42111;BME280;27766;52.174;5.456;2024-02-21T02:55:20;101883.91;;;10.01;100.00
42111;BME280;27766;52.174;5.456;2024-02-21T02:57:47;101882.66;;;9.90;100.00
42111;BME280;27766;52.174;5.456;2024-02-21T03:00:15;101869.69;;;9.88;100.00
42111;BME280;27766;52.174;5.456;2024-02-21T03:02:48;101871.41;;;9.89;100.00
42111;BME280;27766;52.174;5.456;2024-02-21T03:05:16;101871.59;;;9.94;100.00
42111;BME280;27766;52.174;5.456;2024-02-21T03:07:44;101861.16;;;9.91;100.00
42111;BME280;27766;52.174;5.456;2024-02-21T03:10:12;101868.19;;;9.95;100.00
42111;BME280;27766;52.174;5.456;2024-02-21T03:12:40;101864.00;;;9.98;100.00
42111;BME280;27766;52.174;5.456;2024-02-21T03:15:07;101863.00;;;9.95;100.00
42111;BME280;27766;52.174;5.456;2024-02-21T03:17:35;101855.59;;;10.04;100.00
42111;BME280;27766;52.174;5.456;2024-02-21T03:20:03;101855.75;;;10.09;100.00
42111;BME280;27766;52.174;5.456;2024-02-21T03:22:40;101851.06;;;9.98;100.00
42111;BME280;27766;52.174;5.456;2024-02-21T03:25:08;101849.56;;;10.04;100.00
42111;BME280;27766;52.174;5.456;2024-02-21T03:27:36;101854.56;;;9.99;100.00
42111;BME280;27766;52.174;5.456;2024-02-21T03:30:05;101846.84;;;10.01;100.00
42111;BME280;27766;52.174;5.456;2024-02-21T03:32:34;101837.16;;;9.95;100.00
42111;BME280;27766;52.174;5.456;2024-02-21T03:35:01;101825.75;;;9.90;100.00
42111;BME280;27766;52.174;5.456;2024-02-21T03:37:28;101824.81;;;9.88;100.00
42111;BME280;27766;52.174;5.456;2024-02-21T03:39:55;101824.94;;;9.91;100.00
42111;BME280;27766;52.174;5.456;2024-02-21T03:42:22;101826.72;;;9.92;100.00
42111;BME280;27766;52.174;5.456;2024-02-21T03:44:50;101817.88;;;9.87;100.00
42111;BME280;27766;52.174;5.456;2024-02-21T03:47:17;101813.69;;;9.90;100.00
42111;BME280;27766;52.174;5.456;2024-02-21T03:49:44;101803.25;;;9.87;100.00
42111;BME280;27766;52.174;5.456;2024-02-21T03:52:11;101812.84;;;9.90;100.00
42111;BME280;27766;52.174;5.456;2024-02-21T03:54:39;101812.66;;;9.85;100.00
42111;BME280;27766;52.174;5.456;2024-02-21T03:57:06;101815.25;;;9.85;100.00
42111;BME280;27766;52.174;5.456;2024-02-21T03:59:33;101809.03;;;9.80;100.00
42111;BME280;27766;52.174;5.456;2024-02-21T04:02:00;101812.28;;;9.74;100.00
42111;BME280;27766;52.174;5.456;2024-02-21T04:04:28;101818.66;;;9.84;100.00
42111;BME280;27766;52.174;5.456;2024-02-21T04:06:55;101815.06;;;9.80;100.00
42111;BME280;27766;52.174;5.456;2024-02-21T04:09:22;101809.91;;;9.80;100.00
42111;BME280;27766;52.174;5.456;2024-02-21T04:11:50;101811.63;;;9.80;100.00
42111;BME280;27766;52.174;5.456;2024-02-21T04:14:17;101807.88;;;9.72;100.00
42111;BME280;27766;52.174;5.456;2024-02-21T04:16:44;101810.38;;;9.70;100.00
42111;BME280;27766;52.174;5.456;2024-02-21T04:19:11;101789.44;;;9.62;100.00
42111;BME280;27766;52.174;5.456;2024-02-21T04:21:39;101784.69;;;9.75;100.00
42111;BME280;27766;52.174;5.456;2024-02-21T04:24:06;101788.19;;;9.75;100.00
42111;BME280;27766;52.174;5.456;2024-02-21T04:26:34;101784.78;;;9.76;100.00
42111;BME280;27766;52.174;5.456;2024-02-21T04:29:01;101790.56;;;9.69;100.00
42111;BME280;27766;52.174;5.456;2024-02-21T04:31:29;101781.63;;;9.61;100.00
42111;BME280;27766;52.174;5.456;2024-02-21T04:33:56;101779.03;;;9.61;100.00
42111;BME280;27766;52.174;5.456;2024-02-21T04:36:24;101790.13;;;9.58;100.00
42111;BME280;27766;52.174;5.456;2024-02-21T04:38:51;101779.72;;;9.57;100.00
42111;BME280;27766;52.174;5.456;2024-02-21T04:41:19;101776.94;;;9.50;100.00
42111;BME280;27766;52.174;5.456;2024-02-21T04:43:46;101782.22;;;9.54;100.00
42111;BME280;27766;52.174;5.456;2024-02-21T04:46:15;101777.88;;;9.53;100.00
42111;BME280;27766;52.174;5.456;2024-02-21T04:48:43;101775.03;;;9.46;100.00
42111;BME280;27766;52.174;5.456;2024-02-21T04:51:11;101767.63;;;9.56;100.00
42111;BME280;27766;52.174;5.456;2024-02-21T04:53:38;101761.66;;;9.57;100.00
42111;BME280;27766;52.174;5.456;2024-02-21T04:56:06;101760.47;;;9.48;100.00
42111;BME280;27766;52.174;5.456;2024-02-21T04:58:37;101766.72;;;9.54;100.00
42111;BME280;27766;52.174;5.456;2024-02-21T05:01:04;101758.25;;;9.58;100.00
42111;BME280;27766;52.174;5.456;2024-02-21T05:03:32;101762.41;;;9.54;100.00
42111;BME280;27766;52.174;5.456;2024-02-21T05:05:59;101766.16;;;9.62;100.00
42111;BME280;27766;52.174;5.456;2024-02-21T05:08:26;101767.72;;;9.57;100.00
42111;BME280;27766;52.174;5.456;2024-02-21T05:10:54;101763.19;;;9.52;100.00
42111;BME280;27766;52.174;5.456;2024-02-21T05:13:21;101760.59;;;9.52;100.00
42111;BME280;27766;52.174;5.456;2024-02-21T05:15:49;101764.00;;;9.50;100.00
42111;BME280;27766;52.174;5.456;2024-02-21T05:18:16;101750.97;;;9.47;100.00
42111;BME280;27766;52.174;5.456;2024-02-21T05:20:43;101734.59;;;9.47;100.00
42111;BME280;27766;52.174;5.456;2024-02-21T05:23:10;101730.63;;;9.57;100.00
42111;BME280;27766;52.174;5.456;2024-02-21T05:25:37;101726.56;;;9.63;100.00
42111;BME280;27766;52.174;5.456;2024-02-21T05:28:05;101728.94;;;9.57;100.00
42111;BME280;27766;52.174;5.456;2024-02-21T05:30:33;101730.53;;;9.54;100.00
42111;BME280;27766;52.174;5.456;2024-02-21T05:33:06;101727.22;;;9.58;100.00
42111;BME280;27766;52.174;5.456;2024-02-21T05:35:35;101723.09;;;9.63;100.00
42111;BME280;27766;52.174;5.456;2024-02-21T05:38:03;101709.38;;;9.65;100.00
42111;BME280;27766;52.174;5.456;2024-02-21T05:40:38;101704.09;;;9.61;100.00
42111;BME280;27766;52.174;5.456;2024-02-21T05:43:07;101700.66;;;9.62;100.00
42111;BME280;27766;52.174;5.456;2024-02-21T05:45:34;101699.63;;;9.57;100.00
42111;BME280;27766;52.174;5.456;2024-02-21T05:48:02;101702.16;;;9.55;100.00
42111;BME280;27766;52.174;5.456;2024-02-21T05:50:30;101699.75;;;9.60;100.00
42111;BME280;27766;52.174;5.456;2024-02-21T05:52:57;101688.19;;;9.50;100.00
42111;BME280;27766;52.174;5.456;2024-02-21T05:55:24;101682.91;;;9.47;100.00
42111;BME280;27766;52.174;5.456;2024-02-21T05:57:55;101679.28;;;9.42;100.00
42111;BME280;27766;52.174;5.456;2024-02-21T06:00:23;101665.59;;;9.44;100.00
42111;BME280;27766;52.174;5.456;2024-02-21T06:02:50;101674.44;;;9.51;100.00
42111;BME280;27766;52.174;5.456;2024-02-21T06:05:17;101674.38;;;9.49;100.00
42111;BME280;27766;52.174;5.456;2024-02-21T06:07:44;101677.78;;;9.48;100.00
42111;BME280;27766;52.174;5.456;2024-02-21T06:10:12;101668.22;;;9.46;100.00
42111;BME280;27766;52.174;5.456;2024-02-21T06:12:39;101665.31;;;9.37;100.00
42111;BME280;27766;52.174;5.456;2024-02-21T06:15:06;101659.22;;;9.34;100.00
42111;BME280;27766;52.174;5.456;2024-02-21T06:17:34;101664.97;;;9.52;100.00
42111;BME280;27766;52.174;5.456;2024-02-21T06:20:01;101666.13;;;9.60;100.00
42111;BME280;27766;52.174;5.456;2024-02-21T06:22:30;101668.72;;;9.60;100.00
42111;BME280;27766;52.174;5.456;2024-02-21T06:24:58;101672.16;;;9.60;100.00
42111;BME280;27766;52.174;5.456;2024-02-21T06:27:25;101667.94;;;9.62;100.00
42111;BME280;27766;52.174;5.456;2024-02-21T06:29:52;101673.97;;;9.63;100.00
42111;BME280;27766;52.174;5.456;2024-02-21T06:32:20;101667.78;;;9.58;100.00
42111;BME280;27766;52.174;5.456;2024-02-21T06:34:47;101674.81;;;9.62;100.00
42111;BME280;27766;52.174;5.456;2024-02-21T06:37:14;101676.66;;;9.64;100.00
42111;BME280;27766;52.174;5.456;2024-02-21T06:39:44;101674.97;;;9.66;100.00
42111;BME280;27766;52.174;5.456;2024-02-21T06:42:11;101675.34;;;9.77;100.00
42111;BME280;27766;52.174;5.456;2024-02-21T06:44:38;101666.56;;;9.72;100.00
42111;BME280;27766;52.174;5.456;2024-02-21T06:47:07;101681.91;;;9.68;100.00
42111;BME280;27766;52.174;5.456;2024-02-21T06:49:35;101666.38;;;9.68;100.00
42111;BME280;27766;52.174;5.456;2024-02-21T06:52:06;101669.06;;;9.69;100.00
42111;BME280;27766;52.174;5.456;2024-02-21T06:54:33;101676.53;;;9.61;100.00
42111;BME280;27766;52.174;5.456;2024-02-21T06:57:00;101663.88;;;9.69;100.00
42111;BME280;27766;52.174;5.456;2024-02-21T06:59:27;101658.81;;;9.72;100.00
42111;BME280;27766;52.174;5.456;2024-02-21T07:01:55;101661.44;;;9.74;100.00
42111;BME280;27766;52.174;5.456;2024-02-21T07:04:23;101658.38;;;9.60;100.00
42111;BME280;27766;52.174;5.456;2024-02-21T07:06:50;101650.72;;;9.63;100.00
42111;BME280;27766;52.174;5.456;2024-02-21T07:09:18;101658.09;;;9.52;100.00
42111;BME280;27766;52.174;5.456;2024-02-21T07:11:45;101655.69;;;9.57;100.00
42111;BME280;27766;52.174;5.456;2024-02-21T07:14:14;101648.50;;;9.48;100.00
42111;BME280;27766;52.174;5.456;2024-02-21T07:16:42;101653.53;;;9.45;100.00
42111;BME280;27766;52.174;5.456;2024-02-21T07:19:09;101635.28;;;9.40;100.00
42111;BME280;27766;52.174;5.456;2024-02-21T07:21:37;101644.97;;;9.46;100.00
42111;BME280;27766;52.174;5.456;2024-02-21T07:24:09;101641.69;;;9.50;100.00
42111;BME280;27766;52.174;5.456;2024-02-21T07:26:36;101639.34;;;9.58;100.00
42111;BME280;27766;52.174;5.456;2024-02-21T07:29:03;101633.34;;;9.59;100.00
42111;BME280;27766;52.174;5.456;2024-02-21T07:31:31;101644.34;;;9.53;100.00
42111;BME280;27766;52.174;5.456;2024-02-21T07:33:58;101637.63;;;9.58;100.00
42111;BME280;27766;52.174;5.456;2024-02-21T07:36:29;101633.25;;;9.56;100.00
42111;BME280;27766;52.174;5.456;2024-02-21T07:38:57;101628.28;;;9.62;100.00
42111;BME280;27766;52.174;5.456;2024-02-21T07:41:27;101621.75;;;9.47;100.00
42111;BME280;27766;52.174;5.456;2024-02-21T07:43:57;101607.34;;;9.54;100.00
42111;BME280;27766;52.174;5.456;2024-02-21T07:46:25;101616.22;;;9.61;100.00
42111;BME280;27766;52.174;5.456;2024-02-21T07:48:52;101596.44;;;9.63;100.00
42111;BME280;27766;52.174;5.456;2024-02-21T07:51:21;101592.94;;;9.61;100.00
42111;BME280;27766;52.174;5.456;2024-02-21T07:53:48;101582.72;;;9.65;100.00
42111;BME280;27766;52.174;5.456;2024-02-21T07:56:16;101582.19;;;9.74;100.00
42111;BME280;27766;52.174;5.456;2024-02-21T07:58:43;101582.38;;;9.55;100.00
42111;BME280;27766;52.174;5.456;2024-02-21T08:01:11;101575.69;;;9.60;100.00
42111;BME280;27766;52.174;5.456;2024-02-21T08:03:38;101571.56;;;9.66;100.00
42111;BME280;27766;52.174;5.456;2024-02-21T08:06:06;101571.94;;;9.52;100.00
42111;BME280;27766;52.174;5.456;2024-02-21T08:08:39;101572.72;;;9.49;100.00
42111;BME280;27766;52.174;5.456;2024-02-21T08:11:06;101576.47;;;9.57;100.00
42111;BME280;27766;52.174;5.456;2024-02-21T08:13:33;101578.25;;;9.60;100.00
42111;BME280;27766;52.174;5.456;2024-02-21T08:16:01;101568.44;;;9.49;100.00
42111;BME280;27766;52.174;5.456;2024-02-21T08:18:28;101554.09;;;9.59;100.00
42111;BME280;27766;52.174;5.456;2024-02-21T08:20:56;101560.06;;;9.57;100.00
42111;BME280;27766;52.174;5.456;2024-02-21T08:23:23;101562.22;;;9.70;100.00
42111;BME280;27766;52.174;5.456;2024-02-21T08:25:51;101555.41;;;9.72;100.00
42111;BME280;27766;52.174;5.456;2024-02-21T08:28:19;101558.03;;;9.74;100.00
42111;BME280;27766;52.174;5.456;2024-02-21T08:30:46;101557.97;;;9.72;100.00
42111;BME280;27766;52.174;5.456;2024-02-21T08:33:15;101555.31;;;9.69;100.00
42111;BME280;27766;52.174;5.456;2024-02-21T08:35:43;101542.03;;;9.86;100.00
42111;BME280;27766;52.174;5.456;2024-02-21T08:38:11;101535.50;;;9.97;100.00
42111;BME280;27766;52.174;5.456;2024-02-21T08:40:38;101544.13;;;9.97;100.00
42111;BME280;27766;52.174;5.456;2024-02-21T08:43:06;101541.00;;;10.08;100.00
42111;BME280;27766;52.174;5.456;2024-02-21T08:45:33;101532.09;;;9.98;100.00
42111;BME280;27766;52.174;5.456;2024-02-21T08:48:00;101521.59;;;9.93;100.00
42111;BME280;27766;52.174;5.456;2024-02-21T08:50:28;101511.59;;;10.04;100.00
42111;BME280;27766;52.174;5.456;2024-02-21T08:52:56;101509.72;;;10.00;100.00
42111;BME280;27766;52.174;5.456;2024-02-21T08:55:24;101506.53;;;10.07;100.00
42111;BME280;27766;52.174;5.456;2024-02-21T08:57:51;101507.09;;;9.98;100.00
42111;BME280;27766;52.174;5.456;2024-02-21T09:00:18;101509.47;;;9.91;100.00
42111;BME280;27766;52.174;5.456;2024-02-21T09:02:51;101506.94;;;9.94;100.00
42111;BME280;27766;52.174;5.456;2024-02-21T09:05:18;101503.72;;;10.01;100.00
42111;BME280;27766;52.174;5.456;2024-02-21T09:07:46;101504.66;;;10.03;100.00
42111;BME280;27766;52.174;5.456;2024-02-21T09:10:13;101507.22;;;10.02;100.00
42111;BME280;27766;52.174;5.456;2024-02-21T09:12:41;101498.78;;;10.07;100.00
42111;BME280;27766;52.174;5.456;2024-02-21T09:15:08;101501.25;;;10.04;100.00
42111;BME280;27766;52.174;5.456;2024-02-21T09:17:35;101490.63;;;9.95;100.00
42111;BME280;27766;52.174;5.456;2024-02-21T09:20:03;101495.25;;;10.05;100.00
42111;BME280;27766;52.174;5.456;2024-02-21T09:22:30;101494.22;;;10.00;100.00
42111;BME280;27766;52.174;5.456;2024-02-21T09:25:01;101482.22;;;10.02;100.00
42111;BME280;27766;52.174;5.456;2024-02-21T09:27:30;101472.75;;;10.03;100.00
42111;BME280;27766;52.174;5.456;2024-02-21T09:29:57;101472.25;;;10.14;100.00
42111;BME280;27766;52.174;5.456;2024-02-21T09:32:25;101468.78;;;10.14;100.00
42111;BME280;27766;52.174;5.456;2024-02-21T09:34:52;101470.56;;;10.17;100.00
42111;BME280;27766;52.174;5.456;2024-02-21T09:37:26;101458.47;;;10.16;100.00
42111;BME280;27766;52.174;5.456;2024-02-21T09:39:53;101456.09;;;10.22;100.00
42111;BME280;27766;52.174;5.456;2024-02-21T09:42:21;101449.34;;;10.28;100.00
42111;BME280;27766;52.174;5.456;2024-02-21T09:44:51;101449.09;;;10.19;100.00
42111;BME280;27766;52.174;5.456;2024-02-21T09:50:43;101432.38;;;10.37;100.00
42111;BME280;27766;52.174;5.456;2024-02-21T09:53:12;101423.63;;;10.33;100.00
42111;BME280;27766;52.174;5.456;2024-02-21T09:55:43;101411.38;;;10.27;100.00
42111;BME280;27766;52.174;5.456;2024-02-21T09:58:12;101409.88;;;10.36;100.00
42111;BME280;27766;52.174;5.456;2024-02-21T10:00:39;101410.84;;;10.38;100.00
42111;BME280;27766;52.174;5.456;2024-02-21T10:03:06;101397.19;;;10.42;100.00
42111;BME280;27766;52.174;5.456;2024-02-21T10:05:36;101382.47;;;10.41;100.00
42111;BME280;27766;52.174;5.456;2024-02-21T10:08:04;101375.44;;;10.37;100.00
42111;BME280;27766;52.174;5.456;2024-02-21T10:10:44;101367.78;;;10.40;100.00
42111;BME280;27766;52.174;5.456;2024-02-21T10:13:25;101376.41;;;10.40;100.00
42111;BME280;27766;52.174;5.456;2024-02-21T10:16:08;101372.31;;;10.49;100.00
42111;BME280;27766;52.174;5.456;2024-02-21T10:18:36;101355.28;;;10.57;100.00
42111;BME280;27766;52.174;5.456;2024-02-21T10:21:05;101355.13;;;10.51;100.00
42111;BME280;27766;52.174;5.456;2024-02-21T10:23:46;101342.22;;;10.52;100.00
42111;BME280;27766;52.174;5.456;2024-02-21T10:26:15;101348.47;;;10.60;100.00
42111;BME280;27766;52.174;5.456;2024-02-21T10:28:43;101321.59;;;10.55;100.00
42111;BME280;27766;52.174;5.456;2024-02-21T10:31:23;101336.91;;;10.81;100.00
42111;BME280;27766;52.174;5.456;2024-02-21T10:33:59;101330.75;;;10.76;100.00
42111;BME280;27766;52.174;5.456;2024-02-21T10:36:27;101322.25;;;10.82;100.00
42111;BME280;27766;52.174;5.456;2024-02-21T10:38:54;101319.09;;;10.93;100.00
42111;BME280;27766;52.174;5.456;2024-02-21T10:41:24;101314.09;;;11.01;100.00
42111;BME280;27766;52.174;5.456;2024-02-21T10:43:54;101313.34;;;11.05;100.00
42111;BME280;27766;52.174;5.456;2024-02-21T10:46:24;101314.03;;;10.98;100.00
42111;BME280;27766;52.174;5.456;2024-02-21T10:49:02;101300.50;;;11.10;100.00
42111;BME280;27766;52.174;5.456;2024-02-21T10:51:33;101304.09;;;11.17;100.00
42111;BME280;27766;52.174;5.456;2024-02-21T10:56:39;101289.00;;;10.99;100.00
42111;BME280;27766;52.174;5.456;2024-02-21T10:59:08;101270.75;;;10.94;100.00
42111;BME280;27766;52.174;5.456;2024-02-21T11:01:35;101253.53;;;10.96;100.00
42111;BME280;27766;52.174;5.456;2024-02-21T11:04:05;101240.75;;;11.04;100.00
42111;BME280;27766;52.174;5.456;2024-02-21T11:06:35;101223.63;;;11.09;100.00
42111;BME280;27766;52.174;5.456;2024-02-21T11:09:07;101219.09;;;11.00;100.00
42111;BME280;27766;52.174;5.456;2024-02-21T11:11:39;101212.94;;;10.95;100.00
42111;BME280;27766;52.174;5.456;2024-02-21T11:14:09;101216.59;;;11.05;100.00
42111;BME280;27766;52.174;5.456;2024-02-21T11:16:39;101232.13;;;11.05;100.00
42111;BME280;27766;52.174;5.456;2024-02-21T11:19:08;101275.91;;;10.92;100.00
42111;BME280;27766;52.174;5.456;2024-02-21T11:21:37;101281.75;;;10.84;100.00
42111;BME280;27766;52.174;5.456;2024-02-21T11:24:05;101267.06;;;10.83;100.00
42111;BME280;27766;52.174;5.456;2024-02-21T11:26:32;101263.44;;;10.77;100.00
42111;BME280;27766;52.174;5.456;2024-02-21T11:29:00;101264.97;;;10.69;100.00
42111;BME280;27766;52.174;5.456;2024-02-21T11:31:43;101251.00;;;10.61;100.00
42111;BME280;27766;52.174;5.456;2024-02-21T11:34:11;101258.38;;;10.45;100.00
42111;BME280;27766;52.174;5.456;2024-02-21T11:36:50;101253.50;;;10.58;100.00
42111;BME280;27766;52.174;5.456;2024-02-21T11:39:24;101222.81;;;10.38;100.00
42111;BME280;27766;52.174;5.456;2024-02-21T11:42:04;101229.66;;;10.36;100.00
42111;BME280;27766;52.174;5.456;2024-02-21T11:44:32;101221.34;;;10.48;100.00
42111;BME280;27766;52.174;5.456;2024-02-21T11:47:00;101209.03;;;10.39;100.00
42111;BME280;27766;52.174;5.456;2024-02-21T11:49:29;101208.06;;;10.36;100.00
42111;BME280;27766;52.174;5.456;2024-02-21T11:52:00;101205.44;;;10.34;100.00
42111;BME280;27766;52.174;5.456;2024-02-21T11:54:28;101189.88;;;10.33;100.00
42111;BME280;27766;52.174;5.456;2024-02-21T11:56:55;101184.88;;;10.39;100.00
42111;BME280;27766;52.174;5.456;2024-02-21T11:59:22;101184.06;;;10.40;100.00
42111;BME280;27766;52.174;5.456;2024-02-21T12:01:50;101179.75;;;10.40;100.00
42111;BME280;27766;52.174;5.456;2024-02-21T12:04:20;101133.91;;;10.36;100.00
42111;BME280;27766;52.174;5.456;2024-02-21T12:06:48;101129.16;;;10.53;100.00
42111;BME280;27766;52.174;5.456;2024-02-21T12:09:16;101113.88;;;10.66;100.00
42111;BME280;27766;52.174;5.456;2024-02-21T12:11:44;101100.19;;;10.70;100.00
42111;BME280;27766;52.174;5.456;2024-02-21T12:14:17;101085.91;;;10.87;100.00
42111;BME280;27766;52.174;5.456;2024-02-21T12:16:44;101064.38;;;10.91;100.00
42111;BME280;27766;52.174;5.456;2024-02-21T12:19:14;101069.06;;;11.09;100.00
42111;BME280;27766;52.174;5.456;2024-02-21T12:21:44;101064.84;;;11.15;100.00
42111;BME280;27766;52.174;5.456;2024-02-21T12:24:17;101068.53;;;11.28;100.00
42111;BME280;27766;52.174;5.456;2024-02-21T12:26:44;101060.81;;;11.29;100.00
42111;BME280;27766;52.174;5.456;2024-02-21T12:29:12;101049.44;;;11.22;100.00
42111;BME280;27766;52.174;5.456;2024-02-21T12:31:39;101041.78;;;11.30;100.00
42111;BME280;27766;52.174;5.456;2024-02-21T12:34:06;101052.22;;;11.33;100.00
42111;BME280;27766;52.174;5.456;2024-02-21T12:36:44;101031.38;;;11.27;100.00
42111;BME280;27766;52.174;5.456;2024-02-21T12:39:11;101023.75;;;11.35;100.00
42111;BME280;27766;52.174;5.456;2024-02-21T12:41:39;101017.88;;;11.44;100.00
42111;BME280;27766;52.174;5.456;2024-02-21T12:44:07;101010.75;;;11.33;100.00
42111;BME280;27766;52.174;5.456;2024-02-21T12:46:35;101007.78;;;11.12;100.00
42111;BME280;27766;52.174;5.456;2024-02-21T12:49:03;101001.94;;;11.22;100.00
42111;BME280;27766;52.174;5.456;2024-02-21T12:51:31;100986.16;;;11.09;100.00
42111;BME280;27766;52.174;5.456;2024-02-21T12:53:59;100972.63;;;11.26;100.00
42111;BME280;27766;52.174;5.456;2024-02-21T12:56:27;100971.81;;;11.30;100.00
42111;BME280;27766;52.174;5.456;2024-02-21T12:58:54;100958.16;;;11.37;100.00